Time;durP1;ratioP1;P1;durP2;ratioP2;P2;SDS_P1;SDS_P2;PMS_P1;PMS_P2;Temp;Humidity;BMP_temperature;BMP_pressure;BME280_temperature;BME280_humidity;BME280_pressure;Samples;Min_cycle;Max_cycle;Signal;HPM_P1;HPM_P2
2022/05/16 00:02:49;;;;;;;11.20;3.70;;;;;;;13.62;56.47;101203.35;5237682;55;1139379;-75
2022/05/16 00:07:55;;;;;;;9.10;4.00;;;;;;;13.50;56.23;101205.66;5307599;55;1141075;-76
2022/05/16 00:13:01;;;;;;;10.93;4.33;;;;;;;13.02;55.80;101204.49;5307591;55;1138994;-77
2022/05/16 00:18:07;;;;;;;18.87;6.80;;;;;;;12.51;56.55;101208.83;5307473;55;1141143;-77
2022/05/16 00:23:14;;;;;;;10.73;4.83;;;;;;;12.49;57.88;101211.23;5260481;55;1141227;-75
2022/05/16 00:28:19;;;;;;;11.77;4.53;;;;;;;12.55;58.26;101204.96;5218376;56;1141407;-76
2022/05/16 00:33:25;;;;;;;11.63;5.33;;;;;;;12.63;58.25;101211.03;5165980;56;1141452;-77
2022/05/16 00:38:31;;;;;;;15.03;6.57;;;;;;;12.68;58.76;101208.38;5055570;57;1141186;-74
2022/05/16 00:43:55;;;;;;;8.30;4.13;;;;;;;12.64;58.60;101210.08;4984897;58;1141225;-73
2022/05/16 00:49:04;;;;;;;7.30;3.87;;;;;;;12.63;58.42;101217.67;4972584;58;1139005;-74
2022/05/16 00:54:18;;;;;;;7.90;3.70;;;;;;;12.55;58.38;101216.05;4989157;57;1139294;-75
2022/05/16 00:59:28;;;;;;;6.97;3.43;;;;;;;12.53;58.66;101213.52;4989078;58;1139103;-76
2022/05/16 01:04:49;;;;;;;7.57;3.77;;;;;;;12.49;58.85;101207.25;4995817;57;1139314;-74
2022/05/16 01:09:56;;;;;;;11.93;4.47;;;;;;;12.35;58.63;101208.75;5079335;57;1138964;-73
2022/05/16 01:15:06;;;;;;;11.97;4.13;;;;;;;12.23;59.01;101215.30;5079445;57;1141148;-75
2022/05/16 01:20:12;;;;;;;7.23;3.13;;;;;;;12.20;59.26;101218.20;5012847;58;1141109;-75
2022/05/16 01:25:28;;;;;;;9.20;3.47;;;;;;;12.12;59.33;101221.88;4998109;58;1139045;-76
2022/05/16 01:30:38;;;;;;;6.87;3.37;;;;;;;12.04;59.41;101216.78;4965078;59;1139055;-78
2022/05/16 01:35:45;;;;;;;13.07;4.23;;;;;;;12.00;59.76;101221.93;5261087;55;1139184;-78
2022/05/16 01:41:05;;;;;;;20.23;5.53;;;;;;;11.91;59.78;101226.10;5340985;55;1141359;-75
2022/05/16 01:46:14;;;;;;;17.77;6.33;;;;;;;11.62;59.36;101225.47;5340883;55;1141119;-75
2022/05/16 01:51:22;;;;;;;17.53;6.50;;;;;;;11.12;59.91;101222.39;5291572;55;1139022;-78
2022/05/16 01:56:27;;;;;;;15.80;5.57;;;;;;;11.07;61.12;101224.50;5251058;56;1139057;-73
2022/05/16 02:01:33;;;;;;;16.77;6.57;;;;;;;11.17;61.55;101230.84;5251275;56;1139076;-76
2022/05/16 02:06:39;;;;;;;12.67;5.20;;;;;;;10.98;61.17;101238.38;5251727;56;1138888;-76
2022/05/16 02:11:45;;;;;;;13.70;5.50;;;;;;;10.57;61.47;101232.23;5251696;56;1139342;-74
2022/05/16 02:16:51;;;;;;;13.37;5.83;;;;;;;10.21;62.02;101230.22;5251844;56;1138864;-76
2022/05/16 02:27:20;;;;;;;15.63;5.67;;;;;;;9.91;62.97;101242.72;5251935;56;1139311;-77
2022/05/16 02:32:26;;;;;;;11.33;4.97;;;;;;;9.57;64.00;101246.62;5264790;55;1134790;-78
2022/05/16 02:37:32;;;;;;;11.23;5.13;;;;;;;9.29;64.98;101246.14;5310068;55;1135279;-77
2022/05/16 02:42:38;;;;;;;13.00;4.57;;;;;;;9.09;65.66;101243.84;5278613;56;1134873;-75
2022/05/16 02:47:43;;;;;;;9.87;5.00;;;;;;;9.28;66.62;101247.55;5278541;56;1137280;-75
2022/05/16 02:52:49;;;;;;;12.33;5.57;;;;;;;9.61;66.57;101244.17;5230588;55;1134875;-73
2022/05/16 02:57:55;;;;;;;12.97;5.50;;;;;;;9.88;66.21;101242.91;5245211;55;1137158;-75
2022/05/16 03:03:01;;;;;;;24.33;5.77;;;;;;;9.97;65.63;101241.47;5246488;56;1134780;-75
2022/05/16 03:08:07;;;;;;;23.20;6.20;;;;;;;10.01;65.60;101240.33;5278599;56;1134834;-75
2022/05/16 03:13:13;;;;;;;27.90;6.63;;;;;;;10.14;65.79;101249.17;5234432;56;1141049;-76
2022/05/16 03:18:19;;;;;;;22.53;6.17;;;;;;;10.13;65.34;101252.28;5221696;56;1141072;-77
2022/05/16 03:23:25;;;;;;;42.27;7.42;;;;;;;10.10;65.29;101252.48;5221709;56;1141071;-77
2022/05/16 03:28:32;;;;;;;35.77;6.43;;;;;;;10.19;65.70;101249.77;5221624;56;1141332;-76
2022/05/16 03:33:37;;;;;;;49.63;8.33;;;;;;;10.10;64.87;101247.19;5256497;55;1141107;-74
2022/05/16 03:44:06;;;;;;;61.60;9.37;;;;;;;10.06;65.91;101229.86;5278832;55;1141015;-76
2022/05/16 03:49:13;;;;;;;18.40;6.57;;;;;;;9.98;66.22;101219.38;5271500;56;1141118;-77
2022/05/16 03:54:19;;;;;;;25.13;6.03;;;;;;;9.99;66.98;101215.80;5221547;56;1138962;-76
2022/05/16 03:59:25;;;;;;;17.53;5.73;;;;;;;9.97;67.85;101207.11;5221464;56;1139052;-77
2022/05/16 04:04:31;;;;;;;11.87;5.00;;;;;;;9.99;68.23;101208.72;5251113;56;1139323;-77
2022/05/16 04:09:37;;;;;;;13.57;5.03;;;;;;;10.08;68.24;101212.58;5232430;56;1139023;-74
2022/05/16 04:14:43;;;;;;;33.40;6.57;;;;;;;10.12;68.49;101209.62;5221250;56;1141027;-74
2022/05/16 04:19:49;;;;;;;28.77;9.80;;;;;;;10.11;68.52;101221.13;5221366;56;1141295;-77
2022/05/16 04:24:55;;;;;;;39.37;9.43;;;;;;;9.93;68.78;101236.02;5221264;56;1141080;-76
2022/05/16 04:30:01;;;;;;;30.93;7.63;;;;;;;9.71;69.77;101240.47;5221324;56;1139061;-75
2022/05/16 04:35:08;;;;;;;17.53;5.93;;;;;;;9.53;70.73;101241.98;5273121;55;1139176;-76
2022/05/16 04:40:14;;;;;;;27.37;7.90;;;;;;;9.43;71.18;101243.51;5274099;55;1139073;-72
2022/05/16 04:45:28;;;;;;;11.80;4.47;;;;;;;9.50;71.86;101227.65;5239126;55;1139094;-74
2022/05/16 04:50:35;;;;;;;12.43;3.98;;;;;;;9.73;73.37;101226.23;5263107;54;1139037;-74
2022/05/16 04:55:41;;;;;;;11.48;4.17;;;;;;;10.04;73.14;101226.45;5307562;55;1138985;-74
2022/05/16 05:00:47;;;;;;;15.70;4.10;;;;;;;10.33;73.67;101231.69;5307611;55;1141095;-75
2022/05/16 05:05:53;;;;;;;13.25;5.15;;;;;;;10.61;73.34;101220.13;5335047;54;1141195;-75
2022/05/16 05:16:24;;;;;;;12.90;3.63;;;;;;;11.13;73.70;101215.67;5342748;54;1141133;-77
2022/05/16 05:21:29;;;;;;;14.20;4.27;;;;;;;11.43;73.64;101215.34;5342282;54;1141100;-75
2022/05/16 05:26:37;;;;;;;18.30;3.67;;;;;;;11.75;73.48;101222.34;5333434;54;1141145;-75
2022/05/16 05:31:42;;;;;;;8.77;3.50;;;;;;;12.05;73.29;101220.66;5107373;57;1141056;-74
2022/05/16 05:36:48;;;;;;;12.93;3.90;;;;;;;12.40;72.84;101227.80;5342725;54;1139009;-76
2022/05/16 05:41:54;;;;;;;8.93;3.73;;;;;;;12.60;71.87;101226.70;5295111;55;1141078;-76
2022/05/16 05:47:01;;;;;;;12.87;3.60;;;;;;;12.83;71.55;101224.95;5283822;55;1139120;-74
2022/05/16 05:52:07;;;;;;;6.07;2.80;;;;;;;13.12;71.46;101227.22;5291185;55;1138449;-73
2022/05/16 05:57:14;;;;;;;6.27;3.07;;;;;;;13.33;70.08;101233.06;5301345;55;1137023;-76
2022/05/16 06:02:21;;;;;;;10.37;2.90;;;;;;;13.58;70.40;101228.02;5289890;54;1136924;-75
2022/05/16 06:07:27;;;;;;;4.87;2.60;;;;;;;13.80;69.48;101223.64;5162960;57;1139080;-73
2022/05/16 06:12:33;;;;;;;7.53;2.50;;;;;;;13.95;67.95;101222.41;5195319;55;1136909;-75
2022/05/16 06:17:40;;;;;;;6.33;2.23;;;;;;;14.19;68.13;101229.76;5265183;55;1136962;-73
2022/05/16 06:22:45;;;;;;;5.57;2.77;;;;;;;14.39;66.34;101227.62;5252681;55;1136922;-76
2022/05/16 06:27:51;;;;;;;11.97;3.40;;;;;;;14.53;66.16;101218.52;5252633;54;1136985;-76
2022/05/16 06:32:57;;;;;;;5.50;2.80;;;;;;;14.70;65.23;101225.95;5248658;55;1139352;-76
2022/05/16 06:38:11;;;;;;;8.23;2.42;;;;;;;14.85;64.02;101220.31;5299967;55;1136971;-75
2022/05/16 06:43:19;;;;;;;11.17;4.93;;;;;;;15.02;64.62;101215.25;5273461;55;1137227;-75
2022/05/16 06:48:26;;;;;;;10.13;2.77;;;;;;;15.17;62.34;101213.09;5253652;55;1139368;-76
2022/05/16 06:53:32;;;;;;;5.37;2.40;;;;;;;15.21;61.76;101211.86;5263584;55;1139006;-74
2022/05/16 06:58:38;;;;;;;6.70;2.37;;;;;;;15.41;62.13;101205.66;5296959;55;1136963;-76
2022/05/16 07:03:44;;;;;;;6.78;2.47;;;;;;;15.68;61.53;101203.77;5266610;55;1136956;-75
2022/05/16 07:08:49;;;;;;;3.77;2.10;;;;;;;15.96;61.64;101206.16;5308943;55;1134869;-74
2022/05/16 07:13:56;;;;;;;9.18;2.55;;;;;;;16.11;60.15;101199.93;5237363;55;1134834;-76
2022/05/16 07:19:02;;;;;;;9.70;2.13;;;;;;;16.23;57.46;101205.98;5220393;56;1138910;-74
2022/05/16 07:24:09;;;;;;;5.73;2.17;;;;;;;16.29;57.58;101211.62;5300768;55;1138930;-75
2022/05/16 07:29:15;;;;;;;6.17;1.77;;;;;;;16.38;58.23;101215.27;5304337;55;1139010;-75
2022/05/16 07:34:20;;;;;;;9.27;2.30;;;;;;;16.69;58.84;101214.18;5308866;55;1141657;-76
2022/05/16 07:39:26;;;;;;;6.37;1.57;;;;;;;16.93;57.86;101210.23;5270135;55;1138991;-75
2022/05/16 07:44:34;;;;;;;4.90;2.10;;;;;;;17.17;56.65;101212.77;5235609;55;1139087;-76
2022/05/16 07:49:40;;;;;;;9.30;2.37;;;;;;;17.24;55.90;101218.40;5276229;55;1139138;-76
2022/05/16 07:54:45;;;;;;;4.50;2.00;;;;;;;17.32;54.56;101222.52;5296901;55;1139022;-75
2022/05/16 07:59:51;;;;;;;7.13;1.80;;;;;;;17.43;54.12;101230.84;5298431;55;1139023;-74
2022/05/16 08:04:57;;;;;;;4.33;2.57;;;;;;;17.47;53.38;101225.56;5247108;55;1139026;-74
2022/05/16 08:15:27;;;;;;;4.73;2.17;;;;;;;17.70;49.60;101248.81;5210144;56;1139007;-74
2022/05/16 08:20:35;;;;;;;5.23;1.63;;;;;;;17.71;52.36;101235.30;5210098;56;1139028;-77
2022/05/16 08:25:43;;;;;;;8.07;1.90;;;;;;;17.85;49.18;101234.80;5209992;56;1139011;-73
2022/05/16 08:30:49;;;;;;;5.63;1.50;;;;;;;17.99;50.82;101235.30;5234259;55;1139451;-76
2022/05/16 08:41:21;;;;;;;6.08;1.30;;;;;;;18.34;48.96;101236.67;5261180;55;1139220;-76
2022/05/16 08:46:37;;;;;;;4.37;1.40;;;;;;;18.48;47.55;101225.45;5220523;56;1139033;-75
2022/05/16 08:51:51;;;;;;;4.80;1.20;;;;;;;18.73;45.28;101217.16;5226551;56;1139201;-74
2022/05/16 08:57:00;;;;;;;6.72;1.32;;;;;;;18.84;47.72;101214.22;5234379;55;1139009;-75
2022/05/16 09:02:18;;;;;;;6.33;1.10;;;;;;;18.90;46.19;101216.80;5307765;55;1139224;-76
2022/05/16 09:07:33;;;;;;;4.33;1.55;;;;;;;19.08;46.87;101202.02;5308316;55;1139008;-75
2022/05/16 09:13:23;;;;;;;4.22;1.28;;;;;;;19.22;44.60;101200.94;5308545;55;1139079;-75
2022/05/16 09:19:11;;;;;;;2.93;1.30;;;;;;;19.31;44.53;101196.45;5383463;54;1136950;-74
2022/05/16 09:24:28;;;;;;;4.25;1.30;;;;;;;19.44;43.36;101171.86;5375058;54;1134857;-75
2022/05/16 09:29:39;;;;;;;6.83;1.40;;;;;;;19.62;44.05;101203.02;5310813;55;1139063;-74
2022/05/16 09:34:45;;;;;;;1.85;1.40;;;;;;;19.85;43.43;101191.70;5274635;55;1139037;-75
2022/05/16 09:39:54;;;;;;;1.27;1.12;;;;;;;19.97;44.45;101181.00;5267709;56;1139289;-74
2022/05/16 09:45:06;;;;;;;10.93;1.30;;;;;;;20.09;41.58;101183.70;5254651;55;1139223;-74
2022/05/16 09:50:21;;;;;;;3.98;1.50;;;;;;;20.08;42.00;101182.52;5274230;55;1141086;-74
2022/05/16 09:55:47;;;;;;;5.83;1.95;;;;;;;20.23;42.07;101187.59;5079819;57;1139046;-74
2022/05/16 10:01:05;;;;;;;2.58;1.35;;;;;;;20.20;40.34;101181.20;5296928;55;1139032;-75
2022/05/16 10:06:34;;;;;;;9.73;1.50;;;;;;;20.24;41.98;101184.74;5238433;55;1139150;-75
2022/05/16 10:11:40;;;;;;;1.90;1.30;;;;;;;20.42;40.11;101189.17;5213970;56;1139180;-74
2022/05/16 10:16:49;;;;;;;2.70;1.27;;;;;;;20.42;40.11;101189.17;5229527;56;1139000;-74
2022/05/16 10:22:03;;;;;;;8.40;1.40;;;;;;;20.45;39.31;101177.59;5257999;55;1139157;-75
2022/05/16 10:27:13;;;;;;;4.05;1.05;;;;;;;20.51;40.94;101172.03;5197418;56;1139107;-75
2022/05/16 10:38:06;;;;;;;6.00;1.37;;;;;;;20.96;38.22;101176.37;5082628;57;1137033;-77
2022/05/16 10:43:43;;;;;;;6.20;1.82;;;;;;;21.17;39.93;101183.06;5173841;56;1137218;-76
2022/05/16 10:48:55;;;;;;;4.78;1.15;;;;;;;21.41;39.98;101177.64;5161794;56;1137078;-75
2022/05/16 10:54:11;;;;;;;4.47;0.90;;;;;;;21.50;39.25;101178.47;5097169;57;1136899;-75
2022/05/16 10:59:55;;;;;;;2.95;1.00;;;;;;;21.65;35.72;101161.91;5322676;55;1137362;-74
2022/05/16 11:05:23;;;;;;;2.57;1.10;;;;;;;21.78;35.24;101176.16;5286468;55;1138989;-76
2022/05/16 11:10:59;;;;;;;2.45;1.07;;;;;;;21.96;37.76;101158.72;5252554;56;1139016;-77
2022/05/16 11:16:17;;;;;;;2.70;1.40;;;;;;;22.27;34.79;101159.23;5281008;55;1139439;-75
2022/05/16 11:21:36;;;;;;;2.33;0.93;;;;;;;22.36;34.36;101149.54;5323884;55;1138995;-73
2022/05/16 11:27:00;;;;;;;2.77;1.60;;;;;;;22.41;35.66;101146.31;5278092;55;1139038;-74
2022/05/16 11:32:52;;;;;;;2.33;1.02;;;;;;;22.45;36.73;101145.78;5341965;55;1139267;-74
2022/05/16 11:38:41;;;;;;;1.95;1.27;;;;;;;22.50;33.06;101137.12;5140524;55;1139203;-74
2022/05/16 11:43:52;;;;;;;1.30;0.75;;;;;;;22.36;34.96;101125.79;5336675;55;1136904;-74
2022/05/16 11:49:12;;;;;;;3.50;0.78;;;;;;;22.50;31.36;101122.81;5282035;55;1137457;-74
2022/05/16 11:54:21;;;;;;;2.58;0.82;;;;;;;22.55;30.19;101123.11;5252181;55;1136927;-75
2022/05/16 12:05:26;;;;;;;0.88;0.88;;;;;;;22.67;32.67;101104.95;5303560;55;1138997;-74
2022/05/16 12:10:33;;;;;;;2.42;1.10;;;;;;;22.80;32.92;101096.26;5312554;55;1139087;-74
2022/05/16 12:15:39;;;;;;;5.50;1.55;;;;;;;22.79;33.64;101092.72;5252273;55;1139161;-74
2022/05/16 12:20:50;;;;;;;2.62;0.82;;;;;;;22.86;33.39;101090.64;5246716;55;1139035;-75
2022/05/16 12:25:56;;;;;;;7.53;1.10;;;;;;;22.94;34.51;101084.64;5256686;55;1139149;-76
2022/05/16 12:31:04;;;;;;;3.17;1.10;;;;;;;23.09;33.83;101085.47;5334042;55;1139007;-75
2022/05/16 12:36:24;;;;;;;3.15;1.20;;;;;;;23.06;34.85;101080.48;5299551;55;1139194;-75
2022/05/16 12:42:03;;;;;;;2.42;1.20;;;;;;;23.26;35.94;101067.73;5253297;55;1139018;-77
2022/05/16 12:47:52;;;;;;;3.15;1.10;;;;;;;23.46;34.98;101069.66;5299344;55;1139000;-76
2022/05/16 12:53:32;;;;;;;5.20;1.32;;;;;;;23.65;35.20;101060.16;5249716;55;1139122;-76
2022/05/16 12:58:52;;;;;;;4.40;1.20;;;;;;;23.72;30.72;101062.91;5305452;55;1136961;-76
2022/05/16 13:04:41;;;;;;;16.20;2.50;;;;;;;23.58;31.01;101058.39;5258083;55;1136316;-77
2022/05/16 13:10:09;;;;;;;57.55;3.52;;;;;;;23.42;30.64;101055.38;5246217;55;1139237;-74
2022/05/16 13:15:28;;;;;;;4.65;0.90;;;;;;;23.54;32.92;101043.08;5228331;55;1141043;-78
2022/05/16 13:20:38;;;;;;;8.53;0.80;;;;;;;23.68;32.75;101042.73;5212068;56;1139005;-74
2022/05/16 13:31:08;;;;;;;2.30;0.70;;;;;;;23.67;31.72;101026.20;5227043;55;1139256;-76
2022/05/16 13:36:25;;;;;;;4.10;0.88;;;;;;;23.57;31.51;101031.06;5308270;55;1139158;-76
2022/05/16 13:41:33;;;;;;;19.85;2.25;;;;;;;23.51;31.50;101029.98;5315314;55;1138944;-75
2022/05/16 13:46:38;;;;;;;17.07;7.30;;;;;;;23.39;32.46;101024.70;5284160;55;1141204;-76
2022/05/16 13:51:51;;;;;;;6.17;2.42;;;;;;;23.43;31.27;101018.73;5277814;55;1141348;-75
2022/05/16 13:57:01;;;;;;;8.98;1.20;;;;;;;23.39;32.56;101020.14;5315649;55;1139129;-74
2022/05/16 14:02:11;;;;;;;3.85;1.27;;;;;;;23.37;33.15;101019.52;5257322;55;1138981;-73
2022/05/16 14:07:24;;;;;;;9.80;1.20;;;;;;;23.25;30.96;101012.91;5267166;55;1139257;-77
2022/05/16 14:12:38;;;;;;;4.70;1.50;;;;;;;23.08;31.95;101012.80;5231390;55;1139011;-74
2022/05/16 14:17:58;;;;;;;4.28;1.00;;;;;;;22.99;32.41;101008.04;5222274;55;1138964;-76
2022/05/16 14:23:15;;;;;;;3.40;1.20;;;;;;;23.10;33.54;101002.66;5227482;56;1138977;-75
2022/05/16 14:28:32;;;;;;;9.73;6.70;;;;;;;23.21;33.31;100996.80;5234459;55;1139191;-75
2022/05/16 14:33:45;;;;;;;7.20;1.12;;;;;;;23.28;32.25;100992.30;5255915;55;1138971;-75
2022/05/16 14:39:01;;;;;;;7.15;2.98;;;;;;;23.37;32.29;100985.78;5276031;55;1137024;-75
2022/05/16 14:44:12;;;;;;;2.22;1.92;;;;;;;23.43;32.17;100989.55;5275406;55;1136918;-75
2022/05/16 14:49:21;;;;;;;2.90;1.10;;;;;;;23.38;31.96;100994.68;5227952;56;1136916;-77
2022/05/16 14:54:43;;;;;;;5.85;0.72;;;;;;;23.47;32.77;100986.29;5227520;56;1136951;-77
2022/05/16 14:59:49;;;;;;;4.85;0.98;;;;;;;23.54;32.88;100986.89;5227614;56;1137249;-74
2022/05/16 15:04:55;;;;;;;7.65;1.10;;;;;;;23.64;32.65;100982.86;5227611;55;1136938;-75
2022/05/16 15:10:00;;;;;;;18.98;1.40;;;;;;;23.67;31.97;100974.89;5315082;55;1137230;-77
2022/05/16 15:15:07;;;;;;;3.30;1.10;;;;;;;23.74;32.29;100975.78;5316385;55;1139000;-77
2022/05/16 15:20:14;;;;;;;7.10;1.77;;;;;;;23.78;32.49;100977.06;5283791;55;1137133;-75
2022/05/16 15:25:20;;;;;;;6.33;1.02;;;;;;;23.84;32.22;100966.30;5207461;56;1137154;-74
2022/05/16 15:30:26;;;;;;;11.35;1.22;;;;;;;23.90;32.63;100966.56;5144598;56;1137018;-75
2022/05/16 15:35:34;;;;;;;14.55;1.42;;;;;;;23.89;30.84;100958.97;5208514;56;1137034;-75
2022/05/16 15:40:42;;;;;;;14.15;1.57;;;;;;;23.67;30.49;100955.98;5197486;56;1136997;-75
2022/05/16 15:45:51;;;;;;;22.07;2.02;;;;;;;23.42;30.62;100954.14;5241082;55;1141219;-75
2022/05/16 15:50:56;;;;;;;3.95;1.20;;;;;;;23.36;31.54;100954.41;5320293;55;1141487;-75
2022/05/16 15:56:02;;;;;;;15.37;1.67;;;;;;;23.31;31.09;100939.30;5228644;56;1138957;-75
2022/05/16 16:01:08;;;;;;;7.33;1.00;;;;;;;23.31;31.96;100940.64;5228140;55;1141199;-75
2022/05/16 16:11:39;;;;;;;6.78;1.42;;;;;;;23.40;32.07;100926.49;5205818;55;1139408;-76
2022/05/16 16:16:46;;;;;;;5.53;1.10;;;;;;;23.37;30.90;100926.39;5211798;56;1138885;-75
2022/05/16 16:21:55;;;;;;;4.20;1.02;;;;;;;23.33;30.79;100929.14;5141923;57;1139232;-75
2022/05/16 16:27:01;;;;;;;2.83;1.15;;;;;;;23.24;30.96;100926.23;5142043;57;1139258;-76
2022/05/16 16:32:08;;;;;;;11.18;1.27;;;;;;;23.25;31.60;100930.59;5150353;56;1139101;-76
2022/05/16 16:37:14;;;;;;;5.35;1.42;;;;;;;23.32;32.39;100919.89;5195448;56;1141342;-76
2022/05/16 16:42:22;;;;;;;10.23;1.45;;;;;;;23.26;30.51;100926.04;5338856;55;1139458;-76
2022/05/16 16:47:28;;;;;;;4.70;1.02;;;;;;;23.12;30.83;100934.00;5318147;55;1141654;-76
2022/05/16 16:57:58;;;;;;;16.40;1.50;;;;;;;22.91;32.31;100934.48;5310021;55;1141435;-76
2022/05/16 17:03:09;;;;;;;20.70;1.77;;;;;;;22.84;32.15;100937.60;5210295;55;1141029;-76
2022/05/16 17:08:20;;;;;;;3.37;1.40;;;;;;;22.80;32.21;100933.92;5211692;56;1141146;-76
2022/05/16 17:13:33;;;;;;;21.70;1.87;;;;;;;22.79;32.04;100936.30;5242238;56;1139142;-75
2022/05/16 17:18:39;;;;;;;30.92;2.05;;;;;;;22.72;32.18;100930.48;5159085;57;1141221;-76
2022/05/16 17:23:52;;;;;;;12.47;1.70;;;;;;;22.63;32.32;100931.08;5159180;57;1141257;-75
2022/05/16 17:28:58;;;;;;;14.07;1.70;;;;;;;22.54;32.71;100920.59;5158762;57;1141084;-75
2022/05/16 17:34:04;;;;;;;13.45;2.05;;;;;;;22.41;32.68;100919.91;5124988;56;1141421;-75
2022/05/16 17:39:10;;;;;;;7.42;1.35;;;;;;;22.22;33.46;100928.02;5160331;56;1141014;-75
2022/05/16 17:44:17;;;;;;;19.35;2.50;;;;;;;22.08;34.16;100923.45;5234071;56;1138980;-75
2022/05/16 17:49:24;;;;;;;21.10;2.87;;;;;;;21.93;34.67;100931.98;5248125;56;1141113;-75
2022/05/16 17:54:34;;;;;;;23.32;2.85;;;;;;;21.76;35.22;100917.33;5244267;56;1139602;-75
2022/05/16 17:59:41;;;;;;;22.98;2.85;;;;;;;21.68;35.92;100934.08;5251519;56;1138986;-75
2022/05/16 18:04:47;;;;;;;11.33;2.00;;;;;;;21.56;36.26;100939.02;5251484;56;1139416;-75
2022/05/16 18:09:57;;;;;;;27.40;2.92;;;;;;;21.43;36.61;100941.98;5252597;55;1138943;-76
2022/05/16 18:15:02;;;;;;;28.80;2.87;;;;;;;21.30;36.88;100945.28;5255529;55;1139076;-75
2022/05/16 18:20:10;;;;;;;10.53;2.90;;;;;;;21.19;37.25;100945.66;5251467;55;1138978;-75
2022/05/16 18:25:18;;;;;;;20.95;2.95;;;;;;;21.11;37.51;100945.19;5251656;55;1139017;-75
2022/05/16 18:30:25;;;;;;;13.15;3.08;;;;;;;21.04;37.71;100963.06;5251566;55;1139192;-75
2022/05/16 18:35:31;;;;;;;15.90;2.15;;;;;;;21.03;38.17;100972.98;5321451;55;1139359;-75
2022/05/16 18:40:37;;;;;;;20.82;2.65;;;;;;;20.94;38.32;100973.17;5283918;55;1138899;-75
2022/05/16 18:51:13;;;;;;;16.62;2.60;;;;;;;20.56;39.42;100962.25;5252217;56;1138888;-75
2022/05/16 18:56:26;;;;;;;16.63;2.77;;;;;;;20.31;39.84;100964.65;5339297;55;1136865;-74
2022/05/16 19:01:34;;;;;;;;;;;;;;;20.14;40.54;100971.05;5345609;55;1141585;-75
2022/05/16 19:06:39;;;;;;;9.63;1.80;;;;;;;19.91;43.06;100977.60;5277579;55;976425;-75
2022/05/16 19:11:46;;;;;;;22.55;3.87;;;;;;;19.76;43.14;100982.80;5304766;55;1136847;-75
2022/05/16 19:16:52;;;;;;;20.50;4.55;;;;;;;19.70;43.54;100984.83;5341762;55;1141351;-74
2022/05/16 19:21:58;;;;;;;17.75;6.00;;;;;;;19.68;43.98;100983.31;5302701;55;1141100;-73
2022/05/16 19:27:04;;;;;;;14.18;4.12;;;;;;;19.68;43.49;100985.50;5251989;55;1141069;-76
2022/05/16 19:32:13;;;;;;;13.55;3.70;;;;;;;19.62;44.08;100988.83;5215631;55;1141146;-74
2022/05/16 19:37:19;;;;;;;16.95;4.30;;;;;;;19.47;44.19;100993.98;5312736;55;1141010;-75
2022/05/16 19:42:28;;;;;;;20.50;3.85;;;;;;;19.43;44.43;100988.59;5290676;55;1141057;-75
2022/05/16 19:47:32;;;;;;;16.27;2.47;;;;;;;19.39;44.41;100985.09;5288664;55;1141169;-76
2022/05/16 19:52:40;;;;;;;22.52;2.87;;;;;;;19.19;44.69;100980.01;5263021;55;1141042;-75
2022/05/16 19:57:45;;;;;;;7.62;1.82;;;;;;;18.97;45.11;100982.77;5252058;56;1141154;-77
2022/05/16 20:02:51;;;;;;;16.02;2.85;;;;;;;18.84;45.55;100979.71;5252366;55;1138993;-78
2022/05/16 20:07:57;;;;;;;26.82;3.75;;;;;;;18.75;45.84;100975.83;5267795;55;1140998;-77
2022/05/16 20:13:04;;;;;;;24.05;1.95;;;;;;;18.68;45.99;100975.61;5268782;55;1141210;-76
2022/05/16 20:18:10;;;;;;;6.72;2.15;;;;;;;18.67;46.11;100976.61;5260904;55;1141128;-76
2022/05/16 20:28:40;;;;;;;9.20;2.47;;;;;;;18.48;46.06;100973.66;5268700;55;1138888;-75
2022/05/16 20:33:46;;;;;;;11.25;3.67;;;;;;;18.49;46.07;100977.16;5258519;55;1138939;-75
2022/05/16 20:38:53;;;;;;;9.15;5.97;;;;;;;18.54;46.35;100984.22;5269707;55;1141291;-76
2022/05/16 20:43:58;;;;;;;12.88;4.58;;;;;;;18.56;46.75;100976.37;5267242;55;1138997;-74
2022/05/16 20:49:06;;;;;;;4.65;2.27;;;;;;;18.47;47.02;100990.73;5253140;55;1141048;-77
2022/05/16 20:54:12;;;;;;;7.97;2.42;;;;;;;18.29;47.20;100984.59;5264274;55;1138970;-75
2022/05/16 20:59:17;;;;;;;30.00;3.15;;;;;;;18.11;46.99;100981.11;5268516;55;1139075;-74
2022/05/16 21:04:24;;;;;;;18.65;2.35;;;;;;;18.03;47.07;100979.69;5273227;55;1141187;-77
2022/05/16 21:09:29;;;;;;;19.73;2.98;;;;;;;18.01;47.08;100973.19;5251182;56;1141053;-74
2022/05/16 21:14:35;;;;;;;6.55;2.77;;;;;;;18.04;46.98;100980.03;5263584;55;1141306;-74
2022/05/16 21:19:43;;;;;;;6.53;2.47;;;;;;;18.06;47.15;100969.52;5269502;55;1139200;-75
2022/05/16 21:24:48;;;;;;;13.22;2.80;;;;;;;18.03;46.98;100973.00;5270035;55;1139240;-75
2022/05/16 21:29:55;;;;;;;7.00;1.92;;;;;;;17.98;47.46;100967.30;5263273;55;1141052;-76
2022/05/16 21:35:01;;;;;;;8.97;2.23;;;;;;;17.94;47.44;100970.77;5262428;55;1139026;-75
2022/05/16 21:40:10;;;;;;;16.33;2.57;;;;;;;17.86;47.72;100970.23;5251474;55;1139086;-75
2022/05/16 21:45:27;;;;;;;5.87;2.83;;;;;;;17.78;48.37;100965.29;5303608;55;1141257;-77
2022/05/16 21:50:40;;;;;;;14.00;3.40;;;;;;;17.58;49.26;100959.22;5163508;57;1136949;-75
2022/05/16 21:55:45;;;;;;;9.10;2.47;;;;;;;17.48;50.06;100967.34;5338458;55;1138979;-75
2022/05/16 22:00:51;;;;;;;12.00;2.53;;;;;;;17.39;50.39;100968.76;5275942;55;1136922;-75
2022/05/16 22:05:57;;;;;;;12.37;2.20;;;;;;;17.46;50.79;100972.48;5323925;55;1139298;-78
2022/05/16 22:11:04;;;;;;;4.10;2.50;;;;;;;17.39;50.94;100973.61;5334468;55;1138980;-74
2022/05/16 22:16:10;;;;;;;6.10;2.50;;;;;;;17.27;50.70;100978.81;5341326;55;1136863;-77
2022/05/16 22:21:15;;;;;;;6.97;3.10;;;;;;;17.23;50.38;100985.47;5341662;55;1136946;-78
2022/05/16 22:26:22;;;;;;;11.30;3.97;;;;;;;17.15;49.95;100990.71;5341836;55;1137119;-75
2022/05/16 22:31:30;;;;;;;8.10;4.30;;;;;;;17.05;49.79;100993.45;5312911;55;1139408;-76
2022/05/16 22:36:36;;;;;;;15.80;4.37;;;;;;;16.87;49.77;101000.57;5341171;55;1136945;-77
2022/05/16 22:41:43;;;;;;;10.53;4.57;;;;;;;16.77;50.27;101005.97;5265457;55;1138996;-78
2022/05/16 22:46:48;;;;;;;14.07;4.50;;;;;;;16.68;50.20;101011.33;5251962;55;1138985;-76
2022/05/16 22:51:54;;;;;;;13.83;3.80;;;;;;;16.58;50.41;101004.66;5251999;55;1138986;-75
2022/05/16 22:57:00;;;;;;;12.67;3.00;;;;;;;16.53;50.40;101003.75;5251982;56;1138341;-74
2022/05/16 23:07:34;;;;;;;8.08;3.05;;;;;;;16.40;50.27;101007.73;5332209;55;1141060;-77
2022/05/16 23:12:38;;;;;;;5.37;2.43;;;;;;;16.38;50.06;101003.03;5332135;55;1139332;-75
2022/05/16 23:17:45;;;;;;;13.00;2.73;;;;;;;16.33;50.14;101008.83;5332129;55;1139207;-78
2022/05/16 23:22:51;;;;;;;10.10;2.43;;;;;;;16.33;50.09;101007.48;5331879;55;1140991;-75
2022/05/16 23:27:56;;;;;;;10.67;2.60;;;;;;;16.39;50.10;101000.71;5332152;55;1141350;-75
2022/05/16 23:33:03;;;;;;;7.08;2.17;;;;;;;16.44;49.62;101005.98;5306445;55;1141082;-74
2022/05/16 23:38:11;;;;;;;9.23;3.20;;;;;;;16.42;49.33;100995.09;5341663;55;1138937;-75
2022/05/16 23:43:16;;;;;;;6.80;3.00;;;;;;;16.39;49.09;100989.54;5341473;55;1139012;-77
2022/05/16 23:48:22;;;;;;;6.23;1.70;;;;;;;16.35;48.90;100994.81;5314697;55;1139034;-78
2022/05/16 23:53:28;;;;;;;6.14;2.60;;;;;;;16.26;48.99;100988.17;5226352;56;1138988;-75
2022/05/16 23:58:34;;;;;;;10.60;2.23;;;;;;;16.12;49.22;100984.98;5217144;56;1139007;-77
